sensor_id;sensor_type;location;lat;lon;timestamp;temperature;humidity
80192;SHT31;69513;51.990;5.704;2023-09-30T07:15:58;17.6;66.7
80192;SHT31;69513;51.990;5.704;2023-09-30T07:18:28;17.6;66.6
80192;SHT31;69513;51.990;5.704;2023-09-30T07:20:59;17.5;66.6
80192;SHT31;69513;51.990;5.704;2023-09-30T07:23:32;17.3;67.2
80192;SHT31;69513;51.990;5.704;2023-09-30T07:26:01;17.2;68.0
80192;SHT31;69513;51.990;5.704;2023-09-30T07:28:31;17.0;68.7
80192;SHT31;69513;51.990;5.704;2023-09-30T07:31:00;16.9;69.4
80192;SHT31;69513;51.990;5.704;2023-09-30T07:33:31;16.8;69.7
80192;SHT31;69513;51.990;5.704;2023-09-30T07:36:00;16.7;70.4
80192;SHT31;69513;51.990;5.704;2023-09-30T07:38:31;16.6;71.0
80192;SHT31;69513;51.990;5.704;2023-09-30T07:41:02;16.5;71.6
80192;SHT31;69513;51.990;5.704;2023-09-30T07:43:33;16.5;72.4
80192;SHT31;69513;51.990;5.704;2023-09-30T07:46:06;16.4;72.6
80192;SHT31;69513;51.990;5.704;2023-09-30T07:48:37;16.3;73.0
80192;SHT31;69513;51.990;5.704;2023-09-30T07:51:07;16.3;73.5
80192;SHT31;69513;51.990;5.704;2023-09-30T07:53:41;16.3;74.1
80192;SHT31;69513;51.990;5.704;2023-09-30T07:56:11;16.2;74.6
80192;SHT31;69513;51.990;5.704;2023-09-30T07:58:42;16.2;74.7
80192;SHT31;69513;51.990;5.704;2023-09-30T08:01:11;16.2;75.4
80192;SHT31;69513;51.990;5.704;2023-09-30T08:03:42;16.2;75.8
80192;SHT31;69513;51.990;5.704;2023-09-30T08:06:12;16.1;76.0
80192;SHT31;69513;51.990;5.704;2023-09-30T08:08:41;16.1;76.2
80192;SHT31;69513;51.990;5.704;2023-09-30T08:11:11;16.1;76.4
80192;SHT31;69513;51.990;5.704;2023-09-30T08:13:41;16.1;76.6
80192;SHT31;69513;51.990;5.704;2023-09-30T08:16:11;16.2;76.7
80192;SHT31;69513;51.990;5.704;2023-09-30T08:18:40;16.2;77.0
80192;SHT31;69513;51.990;5.704;2023-09-30T08:21:11;16.2;76.8
80192;SHT31;69513;51.990;5.704;2023-09-30T08:23:41;16.2;76.8
80192;SHT31;69513;51.990;5.704;2023-09-30T08:26:12;16.2;77.0
80192;SHT31;69513;51.990;5.704;2023-09-30T08:28:42;16.2;77.4
80192;SHT31;69513;51.990;5.704;2023-09-30T08:31:14;16.2;77.5
80192;SHT31;69513;51.990;5.704;2023-09-30T08:33:44;16.2;77.7
80192;SHT31;69513;51.990;5.704;2023-09-30T08:36:15;16.2;77.6
80192;SHT31;69513;51.990;5.704;2023-09-30T08:38:45;16.2;77.8
80192;SHT31;69513;51.990;5.704;2023-09-30T08:41:29;16.3;77.6
80192;SHT31;69513;51.990;5.704;2023-09-30T08:44:03;16.3;77.9
80192;SHT31;69513;51.990;5.704;2023-09-30T08:46:35;16.3;77.8
80192;SHT31;69513;51.990;5.704;2023-09-30T08:49:06;16.3;78.5
80192;SHT31;69513;51.990;5.704;2023-09-30T08:51:37;16.4;78.4
80192;SHT31;69513;51.990;5.704;2023-09-30T08:54:08;16.4;78.3
80192;SHT31;69513;51.990;5.704;2023-09-30T08:56:41;16.4;78.7
80192;SHT31;69513;51.990;5.704;2023-09-30T08:59:16;16.5;78.7
80192;SHT31;69513;51.990;5.704;2023-09-30T09:01:45;16.5;78.5
80192;SHT31;69513;51.990;5.704;2023-09-30T09:04:17;16.5;78.4
80192;SHT31;69513;51.990;5.704;2023-09-30T09:06:48;16.5;78.4
80192;SHT31;69513;51.990;5.704;2023-09-30T09:09:20;16.6;78.7
80192;SHT31;69513;51.990;5.704;2023-09-30T09:11:51;16.6;78.9
80192;SHT31;69513;51.990;5.704;2023-09-30T09:14:38;16.6;78.8
80192;SHT31;69513;51.990;5.704;2023-09-30T09:17:11;16.7;78.6
80192;SHT31;69513;51.990;5.704;2023-09-30T09:19:42;16.7;78.8
80192;SHT31;69513;51.990;5.704;2023-09-30T09:22:12;16.8;78.9
80192;SHT31;69513;51.990;5.704;2023-09-30T09:24:41;16.8;79.1
80192;SHT31;69513;51.990;5.704;2023-09-30T09:27:14;16.8;78.5
80192;SHT31;69513;51.990;5.704;2023-09-30T09:29:44;16.9;79.0
80192;SHT31;69513;51.990;5.704;2023-09-30T09:32:15;16.9;78.8
80192;SHT31;69513;51.990;5.704;2023-09-30T09:34:59;16.9;78.5
80192;SHT31;69513;51.990;5.704;2023-09-30T09:37:32;17.0;79.0
80192;SHT31;69513;51.990;5.704;2023-09-30T09:40:04;17.0;79.4
80192;SHT31;69513;51.990;5.704;2023-09-30T09:42:35;17.1;78.5
80192;SHT31;69513;51.990;5.704;2023-09-30T09:45:09;17.1;78.0
80192;SHT31;69513;51.990;5.704;2023-09-30T09:47:42;17.1;77.7
80192;SHT31;69513;51.990;5.704;2023-09-30T09:50:14;17.2;78.8
80192;SHT31;69513;51.990;5.704;2023-09-30T09:52:50;17.2;78.3
80192;SHT31;69513;51.990;5.704;2023-09-30T09:55:24;17.3;77.9
80192;SHT31;69513;51.990;5.704;2023-09-30T09:57:56;17.3;77.9
80192;SHT31;69513;51.990;5.704;2023-09-30T10:00:28;17.4;78.1
80192;SHT31;69513;51.990;5.704;2023-09-30T10:02:59;17.4;78.0
80192;SHT31;69513;51.990;5.704;2023-09-30T10:05:33;17.5;78.2
80192;SHT31;69513;51.990;5.704;2023-09-30T10:08:08;17.5;77.5
80192;SHT31;69513;51.990;5.704;2023-09-30T10:10:42;17.6;77.2
80192;SHT31;69513;51.990;5.704;2023-09-30T10:13:53;17.6;77.5
80192;SHT31;69513;51.990;5.704;2023-09-30T10:16:50;17.7;77.4
80192;SHT31;69513;51.990;5.704;2023-09-30T10:19:23;17.7;77.1
80192;SHT31;69513;51.990;5.704;2023-09-30T10:22:24;17.8;77.1
80192;SHT31;69513;51.990;5.704;2023-09-30T10:24:59;17.9;76.8
80192;SHT31;69513;51.990;5.704;2023-09-30T10:27:37;17.9;76.8
80192;SHT31;69513;51.990;5.704;2023-09-30T10:30:10;18.0;76.8
80192;SHT31;69513;51.990;5.704;2023-09-30T10:33:12;18.0;76.7
80192;SHT31;69513;51.990;5.704;2023-09-30T10:35:47;18.1;76.5
80192;SHT31;69513;51.990;5.704;2023-09-30T10:38:41;18.1;76.8
80192;SHT31;69513;51.990;5.704;2023-09-30T10:41:49;18.2;76.2
80192;SHT31;69513;51.990;5.704;2023-09-30T10:44:35;18.3;73.7
80192;SHT31;69513;51.990;5.704;2023-09-30T10:47:36;18.4;75.7
80192;SHT31;69513;51.990;5.704;2023-09-30T10:50:53;18.5;76.2
80192;SHT31;69513;51.990;5.704;2023-09-30T10:53:29;18.6;74.4
80192;SHT31;69513;51.990;5.704;2023-09-30T10:56:00;18.7;72.9
80192;SHT31;69513;51.990;5.704;2023-09-30T10:58:47;18.8;74.2
80192;SHT31;69513;51.990;5.704;2023-09-30T11:01:20;18.9;75.3
80192;SHT31;69513;51.990;5.704;2023-09-30T11:04:01;19.0;74.9
80192;SHT31;69513;51.990;5.704;2023-09-30T11:06:34;19.2;73.4
80192;SHT31;69513;51.990;5.704;2023-09-30T11:09:05;19.3;73.0
80192;SHT31;69513;51.990;5.704;2023-09-30T11:11:42;19.4;71.6
80192;SHT31;69513;51.990;5.704;2023-09-30T11:14:24;19.6;70.1
80192;SHT31;69513;51.990;5.704;2023-09-30T11:16:57;19.7;69.0
80192;SHT31;69513;51.990;5.704;2023-09-30T11:19:36;19.8;66.9
80192;SHT31;69513;51.990;5.704;2023-09-30T11:22:07;19.8;67.1
80192;SHT31;69513;51.990;5.704;2023-09-30T11:24:38;19.9;65.7
80192;SHT31;69513;51.990;5.704;2023-09-30T11:27:07;19.9;65.9
80192;SHT31;69513;51.990;5.704;2023-09-30T11:29:52;19.9;64.1
80192;SHT31;69513;51.990;5.704;2023-09-30T11:32:27;20.0;66.2
80192;SHT31;69513;51.990;5.704;2023-09-30T11:35:02;20.0;65.8
80192;SHT31;69513;51.990;5.704;2023-09-30T11:37:35;20.0;64.5
80192;SHT31;69513;51.990;5.704;2023-09-30T11:40:15;20.0;62.8
80192;SHT31;69513;51.990;5.704;2023-09-30T11:43:09;20.0;59.5
80192;SHT31;69513;51.990;5.704;2023-09-30T11:45:44;20.0;60.4
80192;SHT31;69513;51.990;5.704;2023-09-30T11:48:20;20.0;61.1
80192;SHT31;69513;51.990;5.704;2023-09-30T11:50:52;20.0;62.2
80192;SHT31;69513;51.990;5.704;2023-09-30T11:53:25;20.0;62.2
80192;SHT31;69513;51.990;5.704;2023-09-30T11:55:55;20.0;61.4
80192;SHT31;69513;51.990;5.704;2023-09-30T11:58:29;19.9;62.0
80192;SHT31;69513;51.990;5.704;2023-09-30T12:01:00;19.9;61.5
80192;SHT31;69513;51.990;5.704;2023-09-30T12:03:35;19.9;61.5
80192;SHT31;69513;51.990;5.704;2023-09-30T12:06:08;19.9;62.2
80192;SHT31;69513;51.990;5.704;2023-09-30T12:08:41;19.8;60.8
80192;SHT31;69513;51.990;5.704;2023-09-30T12:11:10;19.8;59.7
80192;SHT31;69513;51.990;5.704;2023-09-30T12:13:45;19.8;61.6
80192;SHT31;69513;51.990;5.704;2023-09-30T12:16:20;19.9;59.1
80192;SHT31;69513;51.990;5.704;2023-09-30T12:18:51;19.9;62.0
80192;SHT31;69513;51.990;5.704;2023-09-30T12:21:21;19.9;60.2
80192;SHT31;69513;51.990;5.704;2023-09-30T12:23:53;19.9;62.3
80192;SHT31;69513;51.990;5.704;2023-09-30T12:26:23;19.8;60.7
80192;SHT31;69513;51.990;5.704;2023-09-30T12:28:55;19.8;60.5
80192;SHT31;69513;51.990;5.704;2023-09-30T12:31:29;19.8;61.4
80192;SHT31;69513;51.990;5.704;2023-09-30T12:34:00;19.8;60.1
80192;SHT31;69513;51.990;5.704;2023-09-30T12:36:30;19.8;60.3
80192;SHT31;69513;51.990;5.704;2023-09-30T12:39:02;19.8;60.2
80192;SHT31;69513;51.990;5.704;2023-09-30T12:41:40;19.8;58.5
80192;SHT31;69513;51.990;5.704;2023-09-30T12:44:11;19.8;60.8
80192;SHT31;69513;51.990;5.704;2023-09-30T12:46:42;19.8;60.1
80192;SHT31;69513;51.990;5.704;2023-09-30T12:49:13;19.8;61.2
80192;SHT31;69513;51.990;5.704;2023-09-30T12:51:43;19.8;61.2
80192;SHT31;69513;51.990;5.704;2023-09-30T12:54:13;19.8;61.1
80192;SHT31;69513;51.990;5.704;2023-09-30T12:56:45;19.8;61.2
80192;SHT31;69513;51.990;5.704;2023-09-30T12:59:18;19.8;62.3
80192;SHT31;69513;51.990;5.704;2023-09-30T13:01:52;19.8;61.0
80192;SHT31;69513;51.990;5.704;2023-09-30T13:04:21;19.8;60.1
80192;SHT31;69513;51.990;5.704;2023-09-30T13:06:53;19.8;60.3
80192;SHT31;69513;51.990;5.704;2023-09-30T13:09:23;19.8;61.4
80192;SHT31;69513;51.990;5.704;2023-09-30T13:11:55;19.8;59.6
80192;SHT31;69513;51.990;5.704;2023-09-30T13:14:27;19.8;59.1
80192;SHT31;69513;51.990;5.704;2023-09-30T13:16:58;19.8;59.4
80192;SHT31;69513;51.990;5.704;2023-09-30T13:19:28;19.8;59.2
80192;SHT31;69513;51.990;5.704;2023-09-30T13:22:00;19.8;60.0
80192;SHT31;69513;51.990;5.704;2023-09-30T13:24:30;19.8;61.2
80192;SHT31;69513;51.990;5.704;2023-09-30T13:26:59;19.8;60.0
80192;SHT31;69513;51.990;5.704;2023-09-30T13:29:29;19.8;60.2
80192;SHT31;69513;51.990;5.704;2023-09-30T13:31:58;19.8;60.7
80192;SHT31;69513;51.990;5.704;2023-09-30T13:34:32;19.8;59.0
80192;SHT31;69513;51.990;5.704;2023-09-30T13:37:03;19.8;58.6
80192;SHT31;69513;51.990;5.704;2023-09-30T13:39:33;19.8;58.9
80192;SHT31;69513;51.990;5.704;2023-09-30T13:42:03;19.8;61.3
80192;SHT31;69513;51.990;5.704;2023-09-30T13:44:35;19.8;58.2
80192;SHT31;69513;51.990;5.704;2023-09-30T13:47:07;19.8;58.4
80192;SHT31;69513;51.990;5.704;2023-09-30T13:49:38;19.8;57.4
80192;SHT31;69513;51.990;5.704;2023-09-30T13:52:08;19.8;60.2
80192;SHT31;69513;51.990;5.704;2023-09-30T13:54:38;19.8;60.1
80192;SHT31;69513;51.990;5.704;2023-09-30T13:57:07;19.9;60.6
80192;SHT31;69513;51.990;5.704;2023-09-30T13:59:37;19.9;59.9
80192;SHT31;69513;51.990;5.704;2023-09-30T14:02:07;19.9;59.0
80192;SHT31;69513;51.990;5.704;2023-09-30T14:04:38;19.9;58.8
80192;SHT31;69513;51.990;5.704;2023-09-30T14:07:09;19.9;58.3
80192;SHT31;69513;51.990;5.704;2023-09-30T14:09:41;19.9;60.3
80192;SHT31;69513;51.990;5.704;2023-09-30T14:12:10;19.9;59.8
80192;SHT31;69513;51.990;5.704;2023-09-30T14:14:40;19.9;59.6
80192;SHT31;69513;51.990;5.704;2023-09-30T14:17:09;19.9;60.2
80192;SHT31;69513;51.990;5.704;2023-09-30T14:19:42;19.9;59.9
80192;SHT31;69513;51.990;5.704;2023-09-30T14:22:12;19.9;59.6
80192;SHT31;69513;51.990;5.704;2023-09-30T14:24:42;20.0;58.3
80192;SHT31;69513;51.990;5.704;2023-09-30T14:27:15;20.0;58.1
80192;SHT31;69513;51.990;5.704;2023-09-30T14:29:47;20.0;57.9
80192;SHT31;69513;51.990;5.704;2023-09-30T14:32:17;20.1;58.5
80192;SHT31;69513;51.990;5.704;2023-09-30T14:34:47;20.1;59.7
80192;SHT31;69513;51.990;5.704;2023-09-30T14:37:18;20.1;58.6
80192;SHT31;69513;51.990;5.704;2023-09-30T14:39:48;20.2;58.3
80192;SHT31;69513;51.990;5.704;2023-09-30T14:42:18;20.2;57.8
80192;SHT31;69513;51.990;5.704;2023-09-30T14:44:48;20.3;58.4
80192;SHT31;69513;51.990;5.704;2023-09-30T14:47:17;20.3;58.2
80192;SHT31;69513;51.990;5.704;2023-09-30T14:49:47;20.3;57.9
80192;SHT31;69513;51.990;5.704;2023-09-30T14:52:18;20.3;57.7
80192;SHT31;69513;51.990;5.704;2023-09-30T14:54:48;20.3;59.5
80192;SHT31;69513;51.990;5.704;2023-09-30T14:57:18;20.3;58.6
80192;SHT31;69513;51.990;5.704;2023-09-30T14:59:50;20.3;59.0
80192;SHT31;69513;51.990;5.704;2023-09-30T15:02:19;20.3;60.3
80192;SHT31;69513;51.990;5.704;2023-09-30T15:04:50;20.3;61.6
80192;SHT31;69513;51.990;5.704;2023-09-30T15:07:20;20.3;60.2
80192;SHT31;69513;51.990;5.704;2023-09-30T15:09:51;20.4;61.3
80192;SHT31;69513;51.990;5.704;2023-09-30T15:12:22;20.4;61.0
80192;SHT31;69513;51.990;5.704;2023-09-30T15:14:53;20.4;60.7
80192;SHT31;69513;51.990;5.704;2023-09-30T15:17:23;20.4;61.3
80192;SHT31;69513;51.990;5.704;2023-09-30T15:19:52;20.4;61.0
80192;SHT31;69513;51.990;5.704;2023-09-30T15:22:22;20.4;61.2
80192;SHT31;69513;51.990;5.704;2023-09-30T15:24:53;20.4;58.1
80192;SHT31;69513;51.990;5.704;2023-09-30T15:27:23;20.4;60.7
80192;SHT31;69513;51.990;5.704;2023-09-30T15:29:53;20.4;60.3
80192;SHT31;69513;51.990;5.704;2023-09-30T15:32:25;20.4;60.3
80192;SHT31;69513;51.990;5.704;2023-09-30T15:34:55;20.3;59.8
80192;SHT31;69513;51.990;5.704;2023-09-30T15:37:25;20.3;60.9
80192;SHT31;69513;51.990;5.704;2023-09-30T15:39:57;20.3;61.4
80192;SHT31;69513;51.990;5.704;2023-09-30T15:42:30;20.3;62.1
80192;SHT31;69513;51.990;5.704;2023-09-30T15:44:59;20.3;62.1
80192;SHT31;69513;51.990;5.704;2023-09-30T15:47:30;20.2;62.0
80192;SHT31;69513;51.990;5.704;2023-09-30T15:49:59;20.2;62.2
80192;SHT31;69513;51.990;5.704;2023-09-30T15:52:29;20.2;62.2
80192;SHT31;69513;51.990;5.704;2023-09-30T15:54:58;20.2;62.7
80192;SHT31;69513;51.990;5.704;2023-09-30T15:57:29;20.2;62.1
80192;SHT31;69513;51.990;5.704;2023-09-30T16:00:00;20.1;61.7
80192;SHT31;69513;51.990;5.704;2023-09-30T16:02:31;20.1;62.1
80192;SHT31;69513;51.990;5.704;2023-09-30T16:05:01;20.1;62.3
80192;SHT31;69513;51.990;5.704;2023-09-30T16:07:32;20.0;62.5
80192;SHT31;69513;51.990;5.704;2023-09-30T16:10:01;20.0;63.0
80192;SHT31;69513;51.990;5.704;2023-09-30T16:12:33;20.0;63.5
80192;SHT31;69513;51.990;5.704;2023-09-30T16:15:06;20.0;63.4
80192;SHT31;69513;51.990;5.704;2023-09-30T16:17:38;19.9;64.0
80192;SHT31;69513;51.990;5.704;2023-09-30T16:20:12;19.9;63.5
80192;SHT31;69513;51.990;5.704;2023-09-30T16:22:42;19.9;64.3
80192;SHT31;69513;51.990;5.704;2023-09-30T16:25:12;19.9;64.1
80192;SHT31;69513;51.990;5.704;2023-09-30T16:27:41;19.8;64.4
80192;SHT31;69513;51.990;5.704;2023-09-30T16:30:13;19.8;64.6
80192;SHT31;69513;51.990;5.704;2023-09-30T16:32:42;19.8;64.2
80192;SHT31;69513;51.990;5.704;2023-09-30T16:35:12;19.7;64.3
80192;SHT31;69513;51.990;5.704;2023-09-30T16:37:43;19.7;64.5
80192;SHT31;69513;51.990;5.704;2023-09-30T16:40:14;19.7;64.6
80192;SHT31;69513;51.990;5.704;2023-09-30T16:42:44;19.6;64.8
80192;SHT31;69513;51.990;5.704;2023-09-30T16:45:13;19.6;65.0
80192;SHT31;69513;51.990;5.704;2023-09-30T16:47:44;19.6;65.4
80192;SHT31;69513;51.990;5.704;2023-09-30T16:50:15;19.5;65.5
80192;SHT31;69513;51.990;5.704;2023-09-30T16:52:47;19.5;65.5
80192;SHT31;69513;51.990;5.704;2023-09-30T16:55:16;19.5;65.2
80192;SHT31;69513;51.990;5.704;2023-09-30T16:57:46;19.4;65.2
80192;SHT31;69513;51.990;5.704;2023-09-30T17:00:17;19.4;65.3
80192;SHT31;69513;51.990;5.704;2023-09-30T17:02:49;19.4;65.3
80192;SHT31;69513;51.990;5.704;2023-09-30T17:05:19;19.3;65.6
80192;SHT31;69513;51.990;5.704;2023-09-30T17:07:51;19.3;65.9
80192;SHT31;69513;51.990;5.704;2023-09-30T17:10:22;19.3;66.1
80192;SHT31;69513;51.990;5.704;2023-09-30T17:12:54;19.3;65.5
80192;SHT31;69513;51.990;5.704;2023-09-30T17:15:25;19.2;65.3
80192;SHT31;69513;51.990;5.704;2023-09-30T17:17:57;19.2;65.5
80192;SHT31;69513;51.990;5.704;2023-09-30T17:20:29;19.2;65.5
80192;SHT31;69513;51.990;5.704;2023-09-30T17:23:01;19.1;65.8
80192;SHT31;69513;51.990;5.704;2023-09-30T17:25:33;19.1;65.8
80192;SHT31;69513;51.990;5.704;2023-09-30T17:28:04;19.1;65.8
80192;SHT31;69513;51.990;5.704;2023-09-30T17:30:36;19.0;65.9
80192;SHT31;69513;51.990;5.704;2023-09-30T17:33:07;19.0;66.2
80192;SHT31;69513;51.990;5.704;2023-09-30T17:35:40;19.0;66.4
80192;SHT31;69513;51.990;5.704;2023-09-30T17:38:10;19.0;65.9
80192;SHT31;69513;51.990;5.704;2023-09-30T17:40:41;18.9;65.5
80192;SHT31;69513;51.990;5.704;2023-09-30T17:43:10;18.9;65.3
80192;SHT31;69513;51.990;5.704;2023-09-30T17:45:41;18.9;65.4
80192;SHT31;69513;51.990;5.704;2023-09-30T17:48:11;18.9;65.4
80192;SHT31;69513;51.990;5.704;2023-09-30T17:50:44;18.8;64.9
80192;SHT31;69513;51.990;5.704;2023-09-30T17:53:15;18.8;64.6
80192;SHT31;69513;51.990;5.704;2023-09-30T17:55:46;18.7;65.0
80192;SHT31;69513;51.990;5.704;2023-09-30T17:58:17;18.7;65.5
80192;SHT31;69513;51.990;5.704;2023-09-30T18:00:51;18.7;65.8
80192;SHT31;69513;51.990;5.704;2023-09-30T18:03:22;18.6;65.7
80192;SHT31;69513;51.990;5.704;2023-09-30T18:05:51;18.6;65.8
80192;SHT31;69513;51.990;5.704;2023-09-30T18:08:21;18.5;66.0
80192;SHT31;69513;51.990;5.704;2023-09-30T18:10:50;18.5;66.1
80192;SHT31;69513;51.990;5.704;2023-09-30T18:13:24;18.5;66.0
80192;SHT31;69513;51.990;5.704;2023-09-30T18:15:55;18.5;66.4
80192;SHT31;69513;51.990;5.704;2023-09-30T18:18:24;18.4;66.6
80192;SHT31;69513;51.990;5.704;2023-09-30T18:20:56;18.4;66.7
80192;SHT31;69513;51.990;5.704;2023-09-30T18:23:28;18.4;66.9
80192;SHT31;69513;51.990;5.704;2023-09-30T18:26:01;18.4;67.3
80192;SHT31;69513;51.990;5.704;2023-09-30T18:28:32;18.4;66.8
80192;SHT31;69513;51.990;5.704;2023-09-30T18:31:02;18.3;66.9
80192;SHT31;69513;51.990;5.704;2023-09-30T18:33:32;18.3;67.1
80192;SHT31;69513;51.990;5.704;2023-09-30T18:36:09;18.3;67.4
80192;SHT31;69513;51.990;5.704;2023-09-30T18:38:39;18.3;67.6
80192;SHT31;69513;51.990;5.704;2023-09-30T18:41:15;18.3;67.6
80192;SHT31;69513;51.990;5.704;2023-09-30T18:43:46;18.3;67.8
80192;SHT31;69513;51.990;5.704;2023-09-30T18:46:16;18.3;68.1
80192;SHT31;69513;51.990;5.704;2023-09-30T18:48:47;18.3;68.3
80192;SHT31;69513;51.990;5.704;2023-09-30T18:51:20;18.3;68.3
80192;SHT31;69513;51.990;5.704;2023-09-30T18:53:50;18.3;68.1
80192;SHT31;69513;51.990;5.704;2023-09-30T18:56:22;18.3;67.8
80192;SHT31;69513;51.990;5.704;2023-09-30T18:58:53;18.3;68.2
80192;SHT31;69513;51.990;5.704;2023-09-30T19:01:23;18.3;68.4
80192;SHT31;69513;51.990;5.704;2023-09-30T19:03:52;18.3;68.3
80192;SHT31;69513;51.990;5.704;2023-09-30T19:06:23;18.3;68.0
80192;SHT31;69513;51.990;5.704;2023-09-30T19:08:53;18.3;68.3
80192;SHT31;69513;51.990;5.704;2023-09-30T19:11:23;18.3;68.3
80192;SHT31;69513;51.990;5.704;2023-09-30T19:13:53;18.3;68.1
80192;SHT31;69513;51.990;5.704;2023-09-30T19:16:25;18.3;67.9
80192;SHT31;69513;51.990;5.704;2023-09-30T19:18:56;18.3;67.8
80192;SHT31;69513;51.990;5.704;2023-09-30T19:21:27;18.2;67.8
80192;SHT31;69513;51.990;5.704;2023-09-30T19:24:00;18.2;67.9
80192;SHT31;69513;51.990;5.704;2023-09-30T19:26:32;18.2;68.0
80192;SHT31;69513;51.990;5.704;2023-09-30T19:29:01;18.2;68.4
80192;SHT31;69513;51.990;5.704;2023-09-30T19:31:31;18.2;68.0
80192;SHT31;69513;51.990;5.704;2023-09-30T19:34:00;18.2;68.4
80192;SHT31;69513;51.990;5.704;2023-09-30T19:36:32;18.2;68.2
80192;SHT31;69513;51.990;5.704;2023-09-30T19:39:02;18.2;67.9
80192;SHT31;69513;51.990;5.704;2023-09-30T19:41:34;18.2;67.9
80192;SHT31;69513;51.990;5.704;2023-09-30T19:44:08;18.1;68.3
80192;SHT31;69513;51.990;5.704;2023-09-30T19:46:38;18.1;68.3
80192;SHT31;69513;51.990;5.704;2023-09-30T19:49:08;18.1;68.3
80192;SHT31;69513;51.990;5.704;2023-09-30T19:51:37;18.1;68.4
80192;SHT31;69513;51.990;5.704;2023-09-30T19:54:11;18.1;68.6
80192;SHT31;69513;51.990;5.704;2023-09-30T19:56:41;18.1;68.9
80192;SHT31;69513;51.990;5.704;2023-09-30T19:59:12;18.1;68.7
80192;SHT31;69513;51.990;5.704;2023-09-30T20:01:43;18.0;68.6
80192;SHT31;69513;51.990;5.704;2023-09-30T20:04:14;18.0;68.4
80192;SHT31;69513;51.990;5.704;2023-09-30T20:06:46;18.0;68.4
80192;SHT31;69513;51.990;5.704;2023-09-30T20:09:19;18.0;68.6
80192;SHT31;69513;51.990;5.704;2023-09-30T20:11:50;18.0;68.5
80192;SHT31;69513;51.990;5.704;2023-09-30T20:14:24;18.0;68.5
80192;SHT31;69513;51.990;5.704;2023-09-30T20:16:56;18.0;68.8
80192;SHT31;69513;51.990;5.704;2023-09-30T20:19:26;17.9;69.2
80192;SHT31;69513;51.990;5.704;2023-09-30T20:21:58;17.9;69.1
80192;SHT31;69513;51.990;5.704;2023-09-30T20:24:32;17.9;68.9
80192;SHT31;69513;51.990;5.704;2023-09-30T20:27:03;17.9;69.1
80192;SHT31;69513;51.990;5.704;2023-09-30T20:29:33;17.9;69.6
80192;SHT31;69513;51.990;5.704;2023-09-30T20:32:03;17.9;69.0
80192;SHT31;69513;51.990;5.704;2023-09-30T20:34:33;17.9;69.3
80192;SHT31;69513;51.990;5.704;2023-09-30T20:37:04;17.9;69.2
80192;SHT31;69513;51.990;5.704;2023-09-30T20:39:35;17.9;69.4
80192;SHT31;69513;51.990;5.704;2023-09-30T20:42:08;17.9;69.4
80192;SHT31;69513;51.990;5.704;2023-09-30T20:44:38;17.9;69.5
80192;SHT31;69513;51.990;5.704;2023-09-30T20:47:09;17.9;69.4
80192;SHT31;69513;51.990;5.704;2023-09-30T20:49:39;17.9;69.4
80192;SHT31;69513;51.990;5.704;2023-09-30T20:52:08;17.9;69.5
80192;SHT31;69513;51.990;5.704;2023-09-30T20:54:38;17.9;69.4
80192;SHT31;69513;51.990;5.704;2023-09-30T20:57:09;17.9;69.2
80192;SHT31;69513;51.990;5.704;2023-09-30T20:59:40;17.9;69.6
80192;SHT31;69513;51.990;5.704;2023-09-30T21:02:09;17.9;69.4
80192;SHT31;69513;51.990;5.704;2023-09-30T21:04:40;17.9;69.5
80192;SHT31;69513;51.990;5.704;2023-09-30T21:07:11;17.9;70.2
80192;SHT31;69513;51.990;5.704;2023-09-30T21:09:40;17.9;70.4
80192;SHT31;69513;51.990;5.704;2023-09-30T21:12:12;17.9;70.5
80192;SHT31;69513;51.990;5.704;2023-09-30T21:14:42;17.9;70.4
80192;SHT31;69513;51.990;5.704;2023-09-30T21:17:12;17.9;70.7
80192;SHT31;69513;51.990;5.704;2023-09-30T21:19:41;17.9;70.7
80192;SHT31;69513;51.990;5.704;2023-09-30T21:22:11;17.9;70.7
80192;SHT31;69513;51.990;5.704;2023-09-30T21:24:41;17.9;70.4
80192;SHT31;69513;51.990;5.704;2023-09-30T21:27:12;17.9;70.4
80192;SHT31;69513;51.990;5.704;2023-09-30T21:29:41;17.9;70.0
80192;SHT31;69513;51.990;5.704;2023-09-30T21:32:12;17.9;70.4
80192;SHT31;69513;51.990;5.704;2023-09-30T21:34:41;17.9;70.5
80192;SHT31;69513;51.990;5.704;2023-09-30T21:37:11;17.9;70.4
80192;SHT31;69513;51.990;5.704;2023-09-30T21:39:40;17.9;71.1
80192;SHT31;69513;51.990;5.704;2023-09-30T21:42:10;17.9;70.9
80192;SHT31;69513;51.990;5.704;2023-09-30T21:44:42;17.9;70.6
80192;SHT31;69513;51.990;5.704;2023-09-30T21:47:11;17.9;70.2
80192;SHT31;69513;51.990;5.704;2023-09-30T21:49:41;17.9;70.3
80192;SHT31;69513;51.990;5.704;2023-09-30T21:52:11;17.9;70.6
80192;SHT31;69513;51.990;5.704;2023-09-30T21:54:40;17.9;70.5
80192;SHT31;69513;51.990;5.704;2023-09-30T21:57:11;17.9;70.3
80192;SHT31;69513;51.990;5.704;2023-09-30T21:59:44;17.9;70.7
80192;SHT31;69513;51.990;5.704;2023-09-30T22:02:15;17.9;70.8
80192;SHT31;69513;51.990;5.704;2023-09-30T22:04:45;17.9;70.7
80192;SHT31;69513;51.990;5.704;2023-09-30T22:07:16;17.9;70.1
80192;SHT31;69513;51.990;5.704;2023-09-30T22:09:50;17.9;70.0
80192;SHT31;69513;51.990;5.704;2023-09-30T22:12:19;17.9;69.8
80192;SHT31;69513;51.990;5.704;2023-09-30T22:14:49;17.9;69.2
80192;SHT31;69513;51.990;5.704;2023-09-30T22:17:18;17.9;70.2
80192;SHT31;69513;51.990;5.704;2023-09-30T22:19:48;17.9;69.8
80192;SHT31;69513;51.990;5.704;2023-09-30T22:22:20;17.9;70.3
80192;SHT31;69513;51.990;5.704;2023-09-30T22:24:50;17.9;70.1
80192;SHT31;69513;51.990;5.704;2023-09-30T22:27:22;17.9;69.9
80192;SHT31;69513;51.990;5.704;2023-09-30T22:29:52;17.9;70.1
80192;SHT31;69513;51.990;5.704;2023-09-30T22:32:21;17.9;70.0
80192;SHT31;69513;51.990;5.704;2023-09-30T22:34:51;17.9;69.8
80192;SHT31;69513;51.990;5.704;2023-09-30T22:37:20;17.9;69.8
80192;SHT31;69513;51.990;5.704;2023-09-30T22:39:50;17.9;69.9
80192;SHT31;69513;51.990;5.704;2023-09-30T22:42:20;17.9;69.5
80192;SHT31;69513;51.990;5.704;2023-09-30T22:44:51;17.9;69.8
80192;SHT31;69513;51.990;5.704;2023-09-30T22:47:23;17.9;70.0
80192;SHT31;69513;51.990;5.704;2023-09-30T22:49:56;17.9;69.7
80192;SHT31;69513;51.990;5.704;2023-09-30T22:52:26;17.9;70.1
80192;SHT31;69513;51.990;5.704;2023-09-30T22:54:57;17.9;70.4
80192;SHT31;69513;51.990;5.704;2023-09-30T22:57:28;17.9;69.9
80192;SHT31;69513;51.990;5.704;2023-09-30T22:59:57;17.9;70.0
80192;SHT31;69513;51.990;5.704;2023-09-30T23:02:32;17.9;70.0
80192;SHT31;69513;51.990;5.704;2023-09-30T23:05:04;17.9;70.4
80192;SHT31;69513;51.990;5.704;2023-09-30T23:07:37;17.9;70.5
80192;SHT31;69513;51.990;5.704;2023-09-30T23:10:13;17.9;70.2
80192;SHT31;69513;51.990;5.704;2023-09-30T23:12:44;17.8;70.0
80192;SHT31;69513;51.990;5.704;2023-09-30T23:15:15;17.8;70.3
80192;SHT31;69513;51.990;5.704;2023-09-30T23:17:48;17.8;70.1
80192;SHT31;69513;51.990;5.704;2023-09-30T23:20:20;17.8;69.3
80192;SHT31;69513;51.990;5.704;2023-09-30T23:22:53;17.8;70.2
80192;SHT31;69513;51.990;5.704;2023-09-30T23:25:28;17.8;70.7
80192;SHT31;69513;51.990;5.704;2023-09-30T23:28:01;17.8;70.0
80192;SHT31;69513;51.990;5.704;2023-09-30T23:30:34;17.8;69.9
80192;SHT31;69513;51.990;5.704;2023-09-30T23:33:06;17.8;70.2
80192;SHT31;69513;51.990;5.704;2023-09-30T23:35:37;17.8;70.3
80192;SHT31;69513;51.990;5.704;2023-09-30T23:38:07;17.8;69.5
80192;SHT31;69513;51.990;5.704;2023-09-30T23:40:36;17.8;70.2
80192;SHT31;69513;51.990;5.704;2023-09-30T23:43:08;17.8;70.0
80192;SHT31;69513;51.990;5.704;2023-09-30T23:45:40;17.8;69.9
80192;SHT31;69513;51.990;5.704;2023-09-30T23:48:11;17.8;70.0